Time;durP1;ratioP1;P1;durP2;ratioP2;P2;SDS_P1;SDS_P2;PMS_P1;PMS_P2;Temp;Humidity;BMP_temperature;BMP_pressure;BME280_temperature;BME280_humidity;BME280_pressure;Samples;Min_cycle;Max_cycle;Signal;HPM_P1;HPM_P2
2022/12/05 00:00:07;;;;;;;29.70;14.60;;;;;;;0.44;77.08;99735.11;103405;1297;95182;-68
2022/12/05 00:02:55;;;;;;;29.80;14.60;;;;;;;0.45;77.05;99728.63;103497;1298;97873;-69
2022/12/05 00:05:27;;;;;;;30.50;14.70;;;;;;;0.47;77.31;99727.73;103494;1297;112414;-70
2022/12/05 00:07:55;;;;;;;31.00;15.10;;;;;;;0.50;77.21;99725.57;103373;1298;98000;-71
2022/12/05 00:10:23;;;;;;;29.70;14.30;;;;;;;0.52;77.10;99726.22;103483;1301;107764;-68
2022/12/05 00:12:51;;;;;;;30.00;13.90;;;;;;;0.55;77.10;99721.80;103429;1298;95100;-69
2022/12/05 00:15:23;;;;;;;29.60;15.30;;;;;;;0.57;77.21;99720.70;103411;1298;98003;-70
2022/12/05 00:17:51;;;;;;;28.60;14.60;;;;;;;0.60;77.03;99721.02;103339;1299;111663;-70
2022/12/05 00:20:19;;;;;;;30.20;14.20;;;;;;;0.63;77.26;99719.70;103449;1297;97855;-70
2022/12/05 00:22:48;;;;;;;31.80;14.20;;;;;;;0.64;76.97;99718.46;103388;1297;108209;-69
2022/12/05 00:25:17;;;;;;;28.10;13.80;;;;;;;0.64;77.04;99716.53;103384;1300;97998;-70
2022/12/05 00:27:45;;;;;;;28.50;13.10;;;;;;;0.63;77.13;99716.39;103267;1294;97992;-68
2022/12/05 00:30:13;;;;;;;28.90;14.10;;;;;;;0.60;77.08;99716.80;103412;1297;112394;-70
2022/12/05 00:32:40;;;;;;;27.30;13.00;;;;;;;0.60;76.83;99721.17;103401;1300;98002;-71
2022/12/05 00:35:08;;;;;;;28.30;12.50;;;;;;;0.60;77.13;99720.12;103426;1298;107804;-70
2022/12/05 00:37:36;;;;;;;28.20;12.80;;;;;;;0.56;77.06;99714.27;103436;1300;98061;-70
2022/12/05 00:40:09;;;;;;;29.10;14.40;;;;;;;0.54;77.24;99716.77;103288;1296;95341;-69
2022/12/05 00:42:37;;;;;;;29.60;14.10;;;;;;;0.54;77.14;99716.39;103455;1300;111189;-69
2022/12/05 00:45:10;;;;;;;28.30;13.40;;;;;;;0.55;77.24;99717.61;103363;1302;97980;-69
2022/12/05 00:47:38;;;;;;;28.50;14.30;;;;;;;0.57;77.13;99713.03;103336;1301;108023;-73
2022/12/05 00:50:09;;;;;;;31.40;15.20;;;;;;;0.60;77.17;99710.53;103327;1298;97975;-72
2022/12/05 00:52:37;;;;;;;30.90;16.10;;;;;;;0.62;77.23;99711.70;103391;1297;97904;-71
2022/12/05 00:55:09;;;;;;;30.50;14.10;;;;;;;0.63;77.37;99713.95;103388;1297;111591;-69
2022/12/05 00:57:36;;;;;;;29.50;14.80;;;;;;;0.65;77.16;99709.02;103441;1291;97925;-70
2022/12/05 01:00:09;;;;;;;28.30;13.70;;;;;;;0.67;77.22;99705.30;103252;1299;107244;-70
2022/12/05 01:02:37;;;;;;;28.40;13.70;;;;;;;0.67;77.15;99700.42;103395;1297;97978;-71
2022/12/05 01:05:09;;;;;;;30.20;14.40;;;;;;;0.64;77.08;99701.54;103278;1302;97953;-70
2022/12/05 01:07:37;;;;;;;31.00;14.20;;;;;;;0.65;77.25;99699.60;103361;1291;111703;-70
2022/12/05 01:10:09;;;;;;;31.20;14.50;;;;;;;0.66;77.23;99700.10;103447;1285;95147;-69
2022/12/05 01:12:36;;;;;;;30.20;14.00;;;;;;;0.67;77.15;99703.05;103410;1299;108125;-69
2022/12/05 01:15:09;;;;;;;32.10;14.60;;;;;;;0.69;77.11;99705.44;103451;1295;97857;-68
2022/12/05 01:17:37;;;;;;;28.70;12.70;;;;;;;0.70;77.33;99702.45;103571;1296;97931;-68
2022/12/05 01:20:08;;;;;;;29.70;13.30;;;;;;;0.68;77.37;99700.40;103479;1291;112133;-69
2022/12/05 01:22:36;;;;;;;33.10;14.40;;;;;;;0.67;77.21;99695.88;103367;1302;97970;-69
2022/12/05 01:25:08;;;;;;;29.90;14.30;;;;;;;0.69;77.09;99694.44;103437;1297;107853;-69
2022/12/05 01:27:36;;;;;;;28.80;13.70;;;;;;;0.69;77.19;99695.67;103285;1299;95265;-69
2022/12/05 01:30:08;;;;;;;28.90;14.00;;;;;;;0.65;77.14;99694.88;103522;1291;97880;-68
2022/12/05 01:32:36;;;;;;;32.60;15.90;;;;;;;0.64;77.15;99692.27;103315;1300;111794;-71
2022/12/05 01:35:09;;;;;;;28.90;13.80;;;;;;;0.65;77.37;99694.17;103535;1297;97902;-69
2022/12/05 01:37:37;;;;;;;27.70;13.10;;;;;;;0.68;77.24;99686.96;103563;1291;108026;-69
2022/12/05 01:40:09;;;;;;;28.60;13.20;;;;;;;0.70;77.39;99684.65;103523;1299;97891;-71
2022/12/05 01:42:42;;;;;;;31.70;15.40;;;;;;;0.70;77.27;99685.69;103472;1299;97882;-69
2022/12/05 01:45:34;;;;;;;26.90;13.10;;;;;;;0.71;77.32;99688.64;103455;1296;110818;-68
2022/12/05 01:48:11;;;;;;;28.80;13.90;;;;;;;0.70;77.19;99692.15;103342;1295;97983;-69
2022/12/05 01:50:44;;;;;;;29.90;14.60;;;;;;;0.70;77.22;99684.28;103483;1295;107264;-68
2022/12/05 01:53:17;;;;;;;29.70;13.10;;;;;;;0.71;77.24;99688.80;103502;1291;98487;-69
2022/12/05 01:55:51;;;;;;;30.00;14.60;;;;;;;0.73;77.36;99689.13;103480;1292;97864;-69
2022/12/05 01:58:33;;;;;;;29.80;14.70;;;;;;;0.74;77.34;99684.73;103295;1300;111177;-68
2022/12/05 02:01:05;;;;;;;29.50;13.80;;;;;;;0.76;77.32;99686.27;103537;1297;96484;-70
2022/12/05 02:03:39;;;;;;;29.60;13.50;;;;;;;0.76;77.43;99677.19;103412;1291;107815;-70
2022/12/05 02:06:12;;;;;;;;;;;;;;;0.77;77.31;99678.92;103447;1297;97964;-69
2022/12/05 02:08:45;;;;;;;29.30;14.10;;;;;;;0.75;77.34;99678.08;103421;1297;97016;-70
2022/12/05 02:11:13;;;;;;;;;;;;;;;0.77;77.32;99679.43;103411;1299;111199;-70
2022/12/05 02:14:03;;;;;;;26.80;13.20;;;;;;;0.76;77.03;99675.62;103441;1296;97905;-69
2022/12/05 02:16:50;;;;;;;29.30;13.70;;;;;;;0.78;77.46;99670.69;103457;1297;107795;-69
2022/12/05 02:19:54;;;;;;;28.80;13.30;;;;;;;0.78;77.63;99665.61;103103;1300;98010;-68
2022/12/05 02:22:58;;;;;;;30.00;14.40;;;;;;;0.80;77.35;99664.00;103404;1298;95162;-68
2022/12/05 02:26:03;;;;;;;28.00;12.30;;;;;;;0.80;77.20;99659.47;103387;1286;111790;-68
2022/12/05 02:28:41;;;;;;;27.50;13.40;;;;;;;0.80;77.55;99654.03;103398;1292;97895;-68
2022/12/05 02:31:17;;;;;;;28.00;12.80;;;;;;;0.82;77.40;99653.13;103415;1296;107663;-69
2022/12/05 02:34:17;;;;;;;28.90;14.60;;;;;;;0.83;77.43;99654.50;103368;1306;97920;-68
2022/12/05 02:36:50;;;;;;;27.50;12.90;;;;;;;0.83;77.24;99646.30;103452;1302;98433;-69
2022/12/05 02:39:27;;;;;;;;;;;;;;;0.84;77.28;99650.81;103500;1300;111393;-68
2022/12/05 02:42:34;;;;;;;25.10;12.00;;;;;;;0.83;77.33;99656.77;103484;1296;97963;-68
2022/12/05 02:45:12;;;;;;;32.30;15.10;;;;;;;0.83;77.70;99653.08;103373;1291;108182;-69
2022/12/05 02:47:48;;;;;;;28.80;13.80;;;;;;;0.85;77.48;99654.09;103382;1297;97979;-70
2022/12/05 02:50:31;;;;;;;30.20;15.50;;;;;;;0.88;77.55;99652.63;103382;1302;97907;-69
2022/12/05 02:53:05;;;;;;;34.30;15.90;;;;;;;0.88;77.48;99655.41;103434;1294;111466;-69
2022/12/05 02:55:40;;;;;;;29.00;14.70;;;;;;;0.88;77.18;99656.30;103392;1297;97693;-69
2022/12/05 02:58:26;;;;;;;31.10;15.70;;;;;;;0.89;77.55;99658.90;103411;1300;107380;-69
2022/12/05 03:00:59;;;;;;;31.10;15.30;;;;;;;0.90;77.64;99657.99;103439;1290;97985;-68
2022/12/05 03:03:32;;;;;;;30.70;14.70;;;;;;;0.92;77.23;99654.46;103461;1292;97959;-68
2022/12/05 03:06:09;;;;;;;35.10;15.60;;;;;;;0.95;77.73;99659.11;103426;1294;111844;-69
2022/12/05 03:08:56;;;;;;;31.30;16.20;;;;;;;0.96;77.49;99657.70;103460;1292;97785;-69
2022/12/05 03:11:33;;;;;;;31.40;14.10;;;;;;;0.96;77.30;99657.16;103428;1305;107760;-71
2022/12/05 03:14:09;;;;;;;31.70;14.80;;;;;;;0.96;77.47;99654.38;103416;1301;97891;-72
2022/12/05 03:16:45;;;;;;;31.80;15.30;;;;;;;0.97;77.40;99651.73;103449;1295;97908;-71
2022/12/05 03:19:29;;;;;;;33.00;16.50;;;;;;;0.98;77.35;99649.45;103331;1300;109511;-73
2022/12/05 03:22:01;;;;;;;32.10;16.70;;;;;;;0.96;77.69;99647.37;103293;1302;97755;-69
2022/12/05 03:24:35;;;;;;;31.20;16.00;;;;;;;0.96;77.42;99649.33;103369;1292;107445;-70
2022/12/05 03:27:26;;;;;;;31.70;15.30;;;;;;;0.97;77.49;99645.62;103425;1297;97905;-68
2022/12/05 03:30:13;;;;;;;32.70;16.60;;;;;;;0.97;77.54;99651.21;103446;1291;97951;-67
2022/12/05 03:32:48;;;;;;;32.30;16.60;;;;;;;0.97;77.60;99649.45;103430;1291;111769;-68
2022/12/05 03:35:26;;;;;;;33.50;16.30;;;;;;;0.98;77.47;99648.56;103286;1299;97810;-68
2022/12/05 03:38:03;;;;;;;32.00;15.50;;;;;;;0.98;77.70;99654.86;103382;1291;107574;-68
2022/12/05 03:40:50;;;;;;;32.20;15.20;;;;;;;0.99;77.45;99655.36;103393;1302;97970;-69
2022/12/05 03:43:38;;;;;;;33.70;16.60;;;;;;;1.01;77.81;99656.70;103418;1298;97906;-69
2022/12/05 03:46:31;;;;;;;32.20;17.00;;;;;;;1.02;77.61;99654.59;103450;1292;111742;-68
2022/12/05 03:49:20;;;;;;;30.80;15.10;;;;;;;1.03;77.82;99656.30;103479;1292;97872;-67
2022/12/05 03:52:05;;;;;;;30.80;14.10;;;;;;;1.02;77.39;99646.88;103341;1294;107775;-68
2022/12/05 03:54:58;;;;;;;29.40;14.60;;;;;;;1.02;77.70;99649.50;103472;1298;97878;-68
2022/12/05 03:57:35;;;;;;;29.00;14.10;;;;;;;1.03;77.49;99649.99;103546;1298;97973;-68
2022/12/05 04:00:08;;;;;;;30.70;15.10;;;;;;;1.05;77.75;99646.64;103584;1296;111058;-69
2022/12/05 04:02:54;;;;;;;29.10;14.50;;;;;;;1.05;77.78;99641.91;103511;1299;97909;-68
2022/12/05 04:05:44;;;;;;;27.10;13.80;;;;;;;1.02;77.39;99641.30;103431;1297;108076;-69
2022/12/05 04:08:29;;;;;;;33.10;15.60;;;;;;;1.00;77.63;99636.29;103495;1298;95559;-68
2022/12/05 04:11:01;;;;;;;28.90;14.80;;;;;;;1.00;77.45;99636.45;103504;1305;97977;-69
2022/12/05 04:13:39;;;;;;;27.90;14.70;;;;;;;1.01;77.45;99632.23;103559;1299;112017;-68
2022/12/05 04:21:36;;;;;;;28.30;14.10;;;;;;;1.00;77.69;99633.84;103489;1291;108079;-68
2022/12/05 04:22:23;;;;;;;29.70;15.10;;;;;;;1.02;77.54;99635.01;103556;1292;97974;-69
2022/12/05 04:28:13;;;;;;;29.50;14.90;;;;;;;1.06;77.53;99628.27;103467;1288;113939;-68
2022/12/05 04:31:05;;;;;;;28.80;13.90;;;;;;;1.07;77.66;99626.87;103329;1298;95721;-69
2022/12/05 04:34:00;;;;;;;31.00;16.10;;;;;;;1.07;77.49;99634.02;103555;1291;108098;-74
2022/12/05 04:36:42;;;;;;;32.30;16.30;;;;;;;1.07;77.72;99626.32;103524;1291;97985;-72
2022/12/05 04:39:28;;;;;;;33.10;16.30;;;;;;;1.05;77.47;99624.45;103506;1298;97865;-71
2022/12/05 04:42:06;;;;;;;33.80;17.10;;;;;;;1.03;77.41;99627.83;103601;1292;110643;-71
2022/12/05 04:44:42;;;;;;;30.90;15.40;;;;;;;1.03;77.60;99626.08;103429;1292;143485;-69
2022/12/05 04:47:17;;;;;;;32.80;15.60;;;;;;;1.02;77.43;99625.75;103419;1291;107473;-70
2022/12/05 04:49:47;;;;;;;32.10;16.50;;;;;;;1.02;77.74;99628.20;103395;1291;96276;-72
2022/12/05 04:52:27;;;;;;;30.90;14.80;;;;;;;1.03;77.66;99621.70;103414;1297;97939;-69
2022/12/05 04:55:30;;;;;;;32.00;16.50;;;;;;;1.04;77.76;99622.39;103438;1292;110299;-70
2022/12/05 04:58:17;;;;;;;31.80;16.30;;;;;;;1.05;77.85;99621.67;103445;1299;99658;-70
2022/12/05 05:01:13;;;;;;;31.50;16.00;;;;;;;1.04;77.73;99614.54;103469;1292;108041;-68
2022/12/05 05:04:01;;;;;;;33.90;16.10;;;;;;;1.03;77.64;99615.23;103477;1298;95508;-70
2022/12/05 05:06:29;;;;;;;30.00;15.00;;;;;;;1.02;77.46;99615.79;103477;1301;97948;-69
2022/12/05 05:09:01;;;;;;;30.70;15.60;;;;;;;1.02;77.41;99611.77;103406;1292;111755;-69
2022/12/05 05:11:35;;;;;;;31.20;15.50;;;;;;;1.02;77.45;99616.33;103511;1292;97816;-70
2022/12/05 05:14:05;;;;;;;33.50;16.10;;;;;;;1.01;77.57;99616.52;103535;1299;106249;-70
2022/12/05 05:16:41;;;;;;;33.10;16.00;;;;;;;1.01;77.47;99621.94;103437;1298;96117;-70
2022/12/05 05:19:11;;;;;;;28.70;14.90;;;;;;;1.01;77.56;99622.63;103514;1294;97868;-72
2022/12/05 05:21:43;;;;;;;31.20;14.70;;;;;;;1.01;77.75;99622.64;103468;1291;111220;-71
2022/12/05 05:24:11;;;;;;;30.60;15.00;;;;;;;1.00;77.66;99624.41;103520;1284;97881;-70
2022/12/05 05:26:44;;;;;;;34.40;17.80;;;;;;;0.99;77.49;99624.09;103464;1291;107301;-70
2022/12/05 05:29:16;;;;;;;30.50;15.60;;;;;;;1.00;77.36;99625.11;103476;1292;97985;-70
2022/12/05 05:31:48;;;;;;;33.70;17.60;;;;;;;1.00;77.69;99625.80;103362;1299;98002;-69
2022/12/05 05:34:17;;;;;;;30.20;15.20;;;;;;;1.01;77.69;99628.77;103431;1291;111657;-71
2022/12/05 05:36:44;;;;;;;33.80;16.30;;;;;;;1.01;77.71;99624.55;103309;1300;97958;-70
2022/12/05 05:39:14;;;;;;;33.10;16.00;;;;;;;1.03;77.49;99628.34;103448;1298;107494;-71
2022/12/05 05:41:42;;;;;;;33.60;17.10;;;;;;;1.03;77.63;99629.55;103444;1295;95455;-71
2022/12/05 05:44:14;;;;;;;36.00;17.00;;;;;;;1.06;77.33;99629.16;103486;1293;97943;-70
2022/12/05 05:46:42;;;;;;;35.00;17.20;;;;;;;1.06;77.66;99631.95;103434;1292;111196;-71
2022/12/05 05:49:10;;;;;;;33.30;16.40;;;;;;;1.08;77.52;99631.92;103524;1298;95101;-71
2022/12/05 05:51:38;;;;;;;34.90;17.30;;;;;;;1.09;77.67;99626.98;103509;1294;107117;-70
2022/12/05 05:54:06;;;;;;;35.90;17.80;;;;;;;1.10;77.84;99625.58;103607;1298;97856;-70
2022/12/05 05:56:33;;;;;;;33.40;16.90;;;;;;;1.11;77.75;99627.28;103592;1297;95208;-69
2022/12/05 05:59:05;;;;;;;33.90;17.90;;;;;;;1.14;77.61;99627.56;103384;1295;111184;-72
2022/12/05 06:01:38;;;;;;;33.50;17.20;;;;;;;1.15;77.92;99627.02;103428;1294;97907;-71
2022/12/05 06:04:09;;;;;;;33.60;17.60;;;;;;;1.17;77.63;99625.58;103596;1299;107195;-72
2022/12/05 06:06:43;;;;;;;33.70;16.60;;;;;;;1.16;77.66;99622.27;103390;1296;97711;-69
2022/12/05 06:09:11;;;;;;;34.30;18.90;;;;;;;1.17;77.84;99622.94;103564;1299;97900;-73
2022/12/05 06:11:39;;;;;;;34.30;18.50;;;;;;;1.19;77.55;99625.16;103366;1301;111636;-71
2022/12/05 06:14:12;;;;;;;34.80;18.10;;;;;;;1.21;77.58;99628.98;103546;1298;97878;-70
2022/12/05 06:16:40;;;;;;;27.50;15.00;;;;;;;1.21;77.75;99633.16;103339;1294;108069;-70
2022/12/05 06:19:08;;;;;;;34.50;17.50;;;;;;;1.22;77.92;99638.37;105147;1292;95520;-70
2022/12/05 06:21:35;;;;;;;34.50;17.00;;;;;;;1.24;77.47;99639.89;103759;1299;95409;-70
2022/12/05 06:24:06;;;;;;;36.60;18.40;;;;;;;1.27;77.81;99639.83;103270;1294;111863;-71
2022/12/05 06:26:34;;;;;;;37.20;19.80;;;;;;;1.27;77.63;99641.02;103596;1285;95535;-69
2022/12/05 06:29:02;;;;;;;37.50;19.20;;;;;;;1.28;77.58;99643.61;103464;1291;108114;-69
2022/12/05 06:31:32;;;;;;;37.40;19.60;;;;;;;1.29;77.67;99644.83;103542;1298;97998;-70
2022/12/05 06:34:05;;;;;;;39.00;18.20;;;;;;;1.31;77.51;99640.23;103422;1294;97985;-70
2022/12/05 06:36:32;;;;;;;37.40;19.40;;;;;;;1.33;77.56;99643.34;103461;1295;110888;-70
2022/12/05 06:39:00;;;;;;;36.00;18.30;;;;;;;1.33;77.68;99641.94;103453;1299;97996;-69
2022/12/05 06:41:28;;;;;;;68.70;37.50;;;;;;;1.31;77.62;99641.46;103495;1292;107550;-70
2022/12/05 06:44:04;;;;;;;54.10;29.50;;;;;;;1.33;77.47;99638.97;103525;1291;97842;-70
2022/12/05 06:46:32;;;;;;;41.70;22.10;;;;;;;1.37;78.02;99637.30;103481;1292;95117;-70
2022/12/05 06:49:04;;;;;;;41.80;19.70;;;;;;;1.39;77.73;99634.28;103572;1298;111029;-70
2022/12/05 06:51:32;;;;;;;41.50;20.10;;;;;;;1.39;77.62;99633.76;103537;1291;97860;-70
2022/12/05 06:53:59;;;;;;;39.80;19.20;;;;;;;1.40;77.54;99634.61;103564;1297;106533;-70
2022/12/05 06:56:28;;;;;;;40.40;20.10;;;;;;;1.40;77.40;99630.94;103312;1298;95247;-71
2022/12/05 06:59:00;;;;;;;39.50;20.30;;;;;;;1.40;77.65;99635.98;103493;1297;97888;-71
2022/12/05 07:01:37;;;;;;;35.60;17.60;;;;;;;1.40;77.63;99637.56;103482;1298;111107;-70
2022/12/05 07:04:23;;;;;;;35.20;17.50;;;;;;;1.43;77.62;99637.48;103465;1294;97894;-74
2022/12/05 07:06:57;;;;;;;36.50;19.40;;;;;;;1.45;77.53;99634.45;103528;1298;107870;-71
2022/12/05 07:10:13;;;;;;;36.50;19.10;;;;;;;1.47;77.74;99636.84;103442;1298;95199;-71
2022/12/05 07:12:20;;;;;;;37.30;18.70;;;;;;;1.51;77.63;99629.95;103576;1291;97841;-70
2022/12/05 07:14:48;;;;;;;33.30;16.50;;;;;;;1.54;77.80;99637.02;103494;1298;110796;-70
2022/12/05 07:17:21;;;;;;;32.80;17.20;;;;;;;1.58;77.56;99639.02;103488;1291;96247;-70
2022/12/05 07:19:54;;;;;;;31.70;17.10;;;;;;;1.62;77.68;99642.75;103513;1299;107192;-72
2022/12/05 07:22:27;;;;;;;31.60;15.90;;;;;;;1.67;77.83;99640.52;103564;1291;97893;-72
2022/12/05 07:24:55;;;;;;;32.00;16.60;;;;;;;1.71;77.64;99631.50;103593;1291;97947;-71
2022/12/05 07:27:23;;;;;;;32.40;17.20;;;;;;;1.75;77.76;99630.51;103427;1300;111269;-73
2022/12/05 07:29:58;;;;;;;31.90;16.30;;;;;;;1.80;77.83;99629.70;103538;1299;97970;-70
2022/12/05 07:32:36;;;;;;;35.00;17.70;;;;;;;1.84;77.63;99625.55;103439;1294;108086;-70
2022/12/05 07:35:09;;;;;;;33.90;16.70;;;;;;;1.88;77.77;99625.96;103542;1295;98502;-70
2022/12/05 07:37:36;;;;;;;31.40;15.10;;;;;;;1.92;77.77;99627.77;103580;1295;98079;-69
2022/12/05 07:40:10;;;;;;;40.30;17.90;;;;;;;1.95;77.90;99631.73;103508;1292;111170;-70
2022/12/05 07:42:37;;;;;;;29.50;15.80;;;;;;;1.99;77.77;99631.97;103568;1299;98006;-70
2022/12/05 07:45:10;;;;;;;32.10;16.50;;;;;;;2.02;78.08;99630.33;103385;1285;107487;-70
2022/12/05 07:47:38;;;;;;;33.60;17.40;;;;;;;2.06;78.05;99626.33;103498;1291;95208;-70
2022/12/05 07:50:09;;;;;;;31.70;16.50;;;;;;;2.11;77.72;99629.52;103445;1297;97839;-70
2022/12/05 07:52:36;;;;;;;33.30;16.20;;;;;;;2.15;77.79;99637.10;103442;1295;111202;-71
2022/12/05 07:55:07;;;;;;;34.40;17.30;;;;;;;2.19;77.70;99639.27;103579;1292;97884;-71
2022/12/05 07:57:35;;;;;;;31.30;16.10;;;;;;;2.24;77.53;99642.44;103545;1291;107502;-71
2022/12/05 08:00:06;;;;;;;31.70;16.50;;;;;;;2.28;77.89;99641.45;103338;1301;98386;-70
2022/12/05 08:02:34;;;;;;;32.20;16.90;;;;;;;2.32;77.43;99639.06;103572;1291;97846;-70
2022/12/05 08:05:09;;;;;;;35.00;17.80;;;;;;;2.36;77.84;99643.14;103560;1291;111173;-70
2022/12/05 08:07:37;;;;;;;35.80;17.50;;;;;;;2.40;77.78;99647.08;103423;1294;98503;-71
2022/12/05 08:10:10;;;;;;;34.20;18.20;;;;;;;2.45;77.58;99645.88;103582;1299;107173;-70
2022/12/05 08:12:38;;;;;;;41.00;21.10;;;;;;;2.47;77.92;99647.53;103572;1299;97970;-71
2022/12/05 08:15:10;;;;;;;36.80;19.50;;;;;;;2.50;77.82;99647.79;103554;1291;97977;-71
2022/12/05 08:17:41;;;;;;;36.70;19.00;;;;;;;2.52;77.76;99651.44;103538;1298;111882;-71
2022/12/05 08:20:14;;;;;;;36.60;19.50;;;;;;;2.54;77.55;99649.98;103542;1298;96943;-70
2022/12/05 08:22:41;;;;;;;37.80;18.90;;;;;;;2.56;77.63;99653.40;103528;1298;107810;-70
2022/12/05 08:25:11;;;;;;;37.00;19.40;;;;;;;2.57;77.41;99649.02;103542;1291;98542;-69
2022/12/05 08:27:40;;;;;;;37.80;20.50;;;;;;;2.57;77.69;99650.05;103511;1295;97912;-70
2022/12/05 08:30:08;;;;;;;40.50;19.30;;;;;;;2.60;77.59;99646.98;103581;1285;111185;-70
2022/12/05 08:32:36;;;;;;;38.20;20.90;;;;;;;2.63;77.53;99646.19;103549;1294;97951;-70
2022/12/05 08:35:04;;;;;;;41.50;22.10;;;;;;;2.64;77.66;99648.77;103537;1286;107677;-69
2022/12/05 08:37:32;;;;;;;40.90;20.40;;;;;;;2.64;77.59;99650.70;103391;1298;95252;-69
2022/12/05 08:40:00;;;;;;;40.50;21.30;;;;;;;2.66;77.79;99643.46;103602;1292;97978;-69
2022/12/05 08:42:30;;;;;;;39.80;22.20;;;;;;;2.67;77.61;99634.34;103516;1297;111036;-70
2022/12/05 08:44:58;;;;;;;41.00;21.40;;;;;;;2.67;77.50;99629.77;103564;1298;95212;-70
2022/12/05 08:47:31;;;;;;;39.00;21.40;;;;;;;2.68;77.66;99634.81;103573;1291;107377;-71
2022/12/05 08:50:07;;;;;;;40.00;21.30;;;;;;;2.69;77.53;99627.61;103364;1294;98053;-72
2022/12/05 08:52:35;;;;;;;40.60;21.80;;;;;;;2.72;77.49;99618.95;103299;1298;96246;-69
2022/12/05 08:55:05;;;;;;;41.50;21.30;;;;;;;2.73;77.52;99617.86;103535;1295;111168;-70
2022/12/05 08:57:33;;;;;;;39.70;20.80;;;;;;;2.75;77.75;99619.20;103327;1300;97036;-70
2022/12/05 09:00:07;;;;;;;40.70;20.50;;;;;;;2.76;77.54;99617.23;103519;1294;106583;-70
2022/12/05 09:02:34;;;;;;;;;;;;;;;2.79;77.81;99610.30;103564;1291;98010;-71
2022/12/05 09:05:03;;;;;;;44.60;22.30;;;;;;;2.79;77.60;99610.15;103606;1291;97888;-70
2022/12/05 09:07:55;;;;;;;47.00;21.60;;;;;;;2.82;77.51;99606.36;103367;1291;110251;-73
2022/12/05 09:10:29;;;;;;;39.30;22.00;;;;;;;2.86;78.09;99608.88;103504;1291;97883;-73
2022/12/05 09:12:57;;;;;;;;;;;;;;;2.92;77.65;99596.60;103593;1292;107144;-74
2022/12/05 09:15:25;;;;;;;38.60;20.80;;;;;;;2.96;78.01;99595.23;103523;1291;98425;-71
2022/12/05 09:17:54;;;;;;;47.50;22.10;;;;;;;3.03;78.08;99599.73;103523;1293;97978;-71
2022/12/05 09:20:21;;;;;;;38.30;21.20;;;;;;;3.06;77.78;99601.91;103496;1299;110852;-72
2022/12/05 09:22:52;;;;;;;42.70;22.90;;;;;;;3.08;77.93;99596.41;103580;1284;97695;-71
2022/12/05 09:25:19;;;;;;;38.30;20.80;;;;;;;3.11;77.77;99587.71;103457;1299;107589;-73
2022/12/05 09:27:47;;;;;;;43.20;22.40;;;;;;;3.16;77.88;99578.13;103494;1291;95103;-72
2022/12/05 09:30:15;;;;;;;38.80;21.50;;;;;;;3.19;77.70;99575.71;103509;1291;98038;-74
2022/12/05 09:32:43;;;;;;;39.30;21.30;;;;;;;3.23;77.83;99570.52;103588;1285;111042;-71
2022/12/05 09:35:11;;;;;;;40.00;22.20;;;;;;;3.29;77.93;99579.42;103601;1295;97958;-70
2022/12/05 09:37:40;;;;;;;40.60;21.00;;;;;;;3.36;77.49;99579.68;103513;1289;107501;-71
2022/12/05 09:40:17;;;;;;;42.70;22.40;;;;;;;3.43;77.77;99574.20;103589;1298;97933;-71
2022/12/05 09:43:08;;;;;;;44.40;24.10;;;;;;;3.52;77.81;99571.93;103490;1291;98555;-70
2022/12/05 09:45:54;;;;;;;41.90;23.60;;;;;;;3.62;77.74;99572.30;103410;1291;111586;-70
2022/12/05 09:48:28;;;;;;;40.70;22.10;;;;;;;3.70;77.51;99564.30;103527;1295;95531;-70
2022/12/05 09:51:02;;;;;;;;;;;;;;;3.80;77.66;99561.67;103593;1292;107373;-70
2022/12/05 09:53:37;;;;;;;43.10;23.50;;;;;;;3.90;77.70;99566.88;103539;1302;98288;-70
2022/12/05 09:56:13;;;;;;;45.10;24.90;;;;;;;4.07;77.72;99569.41;103569;1299;97945;-70
2022/12/05 09:58:52;;;;;;;45.10;26.50;;;;;;;4.21;77.86;99570.66;103304;1294;111297;-69
2022/12/05 10:01:47;;;;;;;44.70;25.10;;;;;;;4.30;77.69;99559.06;103323;1294;97982;-70
2022/12/05 10:04:42;;;;;;;43.90;25.30;;;;;;;4.35;77.57;99554.85;103309;1291;107033;-70
2022/12/05 10:07:38;;;;;;;40.10;22.40;;;;;;;4.45;77.54;99550.94;103472;1298;97978;-70
2022/12/05 10:10:34;;;;;;;39.90;22.40;;;;;;;4.53;77.51;99547.80;103437;1301;97928;-72
2022/12/05 10:13:28;;;;;;;43.10;22.80;;;;;;;4.60;77.58;99544.70;103433;1291;109838;-71
2022/12/05 10:16:10;;;;;;;37.30;21.50;;;;;;;4.73;77.60;99545.79;103488;1291;95124;-72
2022/12/05 10:18:58;;;;;;;39.30;21.60;;;;;;;4.84;77.55;99541.47;103450;1291;107330;-71
2022/12/05 10:21:39;;;;;;;39.20;21.90;;;;;;;4.92;77.52;99539.20;103389;1292;98617;-70
2022/12/05 10:24:39;;;;;;;37.10;20.70;;;;;;;5.01;77.63;99535.67;103366;1301;98325;-70
2022/12/05 10:27:19;;;;;;;37.40;22.10;;;;;;;5.18;77.65;99527.05;103516;1291;111043;-70
2022/12/05 10:29:58;;;;;;;42.10;23.70;;;;;;;5.38;77.82;99525.66;103405;1294;96516;-70
2022/12/05 10:32:55;;;;;;;37.50;20.50;;;;;;;5.61;77.74;99522.55;103353;1292;107576;-71
2022/12/05 10:35:33;;;;;;;39.30;19.90;;;;;;;5.83;77.65;99523.66;103543;1299;98069;-71
2022/12/05 10:38:30;;;;;;;37.50;21.40;;;;;;;5.93;77.47;99520.52;103390;1295;97908;-71
2022/12/05 10:41:06;;;;;;;39.70;21.80;;;;;;;6.08;77.67;99521.68;103446;1291;110755;-72
2022/12/05 10:43:39;;;;;;;40.10;22.00;;;;;;;6.23;77.77;99515.50;103530;1292;95177;-71
2022/12/05 10:46:07;;;;;;;53.50;32.00;;;;;;;6.38;77.41;99512.35;103502;1292;106692;-72
2022/12/05 10:48:44;;;;;;;38.30;22.10;;;;;;;6.38;77.04;99509.31;103557;1291;97820;-71
2022/12/05 10:51:22;;;;;;;34.50;20.30;;;;;;;6.33;77.31;99510.30;103602;1299;98555;-71
2022/12/05 10:53:55;;;;;;;38.00;20.90;;;;;;;6.35;77.34;99503.33;103562;1298;111123;-71
2022/12/05 10:56:38;;;;;;;40.20;22.70;;;;;;;6.38;77.15;99492.59;103487;1299;97866;-71
2022/12/05 10:59:17;;;;;;;38.60;23.20;;;;;;;6.50;77.32;99486.73;103524;1298;107500;-70
2022/12/05 11:01:56;;;;;;;47.60;24.30;;;;;;;6.68;77.22;99481.45;103352;1301;98009;-71
2022/12/05 11:04:43;;;;;;;42.60;23.50;;;;;;;6.82;77.15;99474.39;103493;1298;97943;-71
2022/12/05 11:07:52;;;;;;;41.10;22.40;;;;;;;6.83;77.01;99466.79;103353;1295;110723;-72
2022/12/05 11:10:42;;;;;;;41.80;22.80;;;;;;;6.82;77.11;99467.16;103366;1291;98011;-71
2022/12/05 11:13:29;;;;;;;48.30;28.10;;;;;;;6.85;77.36;99466.11;103452;1294;107281;-70
2022/12/05 11:16:02;;;;;;;46.50;26.90;;;;;;;7.03;77.30;99468.26;103515;1292;98006;-72
2022/12/05 11:18:36;;;;;;;43.40;23.00;;;;;;;7.20;77.28;99465.22;103402;1294;97821;-71
2022/12/05 11:21:13;;;;;;;;;;;;;;;7.40;77.42;99468.92;103582;1298;111133;-71
2022/12/05 11:23:41;;;;;;;40.50;21.40;;;;;;;7.56;77.45;99466.00;103508;1291;97845;-70
2022/12/05 11:26:33;;;;;;;38.50;22.00;;;;;;;7.73;77.42;99464.71;103509;1291;107830;-70
2022/12/05 11:29:32;;;;;;;22.00;9.80;;;;;;;7.91;77.19;99459.52;103523;1291;95844;-70
2022/12/05 11:32:20;;;;;;;16.90;6.80;;;;;;;8.07;77.43;99454.39;103504;1291;95170;-71
2022/12/05 11:35:14;;;;;;;15.00;6.10;;;;;;;8.24;77.60;99452.38;103504;1298;109252;-71
2022/12/05 11:37:59;;;;;;;15.70;6.60;;;;;;;8.35;76.76;99453.52;103531;1299;97988;-71
2022/12/05 11:41:14;;;;;;;18.40;6.90;;;;;;;8.40;76.73;99450.24;103394;1293;107279;-71
2022/12/05 11:44:01;;;;;;;17.20;7.00;;;;;;;8.44;77.00;99444.89;103536;1291;95103;-70
2022/12/05 11:47:18;;;;;;;14.70;6.20;;;;;;;8.49;77.09;99446.39;103564;1291;97838;-71
2022/12/05 11:50:04;;;;;;;19.00;6.70;;;;;;;8.49;77.00;99442.34;103518;1291;110772;-71
2022/12/05 11:52:56;;;;;;;15.00;6.00;;;;;;;8.49;76.98;99439.30;103570;1291;98013;-70
2022/12/05 11:55:42;;;;;;;15.30;6.40;;;;;;;8.45;76.86;99437.91;103486;1293;105975;-72
2022/12/05 11:58:35;;;;;;;15.60;6.30;;;;;;;8.40;76.09;99433.26;103495;1291;97861;-71
2022/12/05 12:01:32;;;;;;;16.00;6.20;;;;;;;8.27;76.33;99431.87;103440;1291;97929;-70
2022/12/05 12:04:31;;;;;;;13.90;5.80;;;;;;;8.15;76.28;99429.20;103543;1291;111973;-70